createdAt,value
2022-11-16T00:00:06.083Z,44.60
2022-11-16T00:02:54.762Z,41.50
2022-11-16T00:05:27.132Z,45.00
2022-11-16T00:07:56.940Z,49.50
2022-11-16T00:10:25.444Z,44.70
2022-11-16T00:12:53.807Z,46.40
2022-11-16T00:15:22.227Z,43.90
2022-11-16T00:17:50.512Z,42.80
2022-11-16T00:20:18.878Z,45.30
2022-11-16T00:22:47.208Z,40.00
2022-11-16T00:25:15.583Z,55.20
2022-11-16T00:27:43.897Z,47.60
2022-11-16T00:30:12.714Z,43.60
2022-11-16T00:32:41.020Z,52.30
2022-11-16T00:35:09.519Z,49.30
2022-11-16T00:37:37.848Z,54.70
2022-11-16T00:40:10.601Z,55.50
2022-11-16T00:42:38.968Z,48.00
2022-11-16T00:45:07.825Z,49.00
2022-11-16T00:47:36.295Z,50.60
2022-11-16T00:50:05.025Z,52.30
2022-11-16T00:52:33.267Z,53.00
2022-11-16T00:55:01.610Z,52.90
2022-11-16T00:57:29.915Z,51.80
2022-11-16T00:59:59.163Z,53.50
2022-11-16T01:02:28.196Z,50.80
2022-11-16T01:04:56.492Z,45.60
2022-11-16T01:07:24.935Z,42.50
2022-11-16T01:09:53.443Z,48.90
2022-11-16T01:12:21.762Z,47.70
2022-11-16T01:14:50.143Z,46.20
2022-11-16T01:17:18.456Z,49.20
2022-11-16T01:19:46.799Z,41.80
2022-11-16T01:22:15.124Z,48.70
2022-11-16T01:24:43.449Z,41.30
2022-11-16T01:27:11.845Z,42.00
2022-11-16T01:29:40.273Z,43.20
2022-11-16T01:32:08.854Z,40.70
2022-11-16T01:34:37.277Z,43.40
2022-11-16T01:37:05.695Z,37.00
2022-11-16T01:39:39.988Z,42.60
2022-11-16T01:42:08.423Z,43.90
2022-11-16T01:44:36.581Z,34.60
2022-11-16T01:47:10.377Z,44.40
2022-11-16T01:49:43.521Z,40.20
2022-11-16T01:52:15.747Z,40.80
2022-11-16T01:54:46.964Z,35.70
2022-11-16T01:57:21.191Z,39.10
2022-11-16T01:59:54.240Z,42.30
2022-11-16T02:02:22.665Z,38.10
2022-11-16T02:04:54.367Z,35.80
2022-11-16T02:08:01.192Z,41.60
2022-11-16T02:10:48.875Z,38.10
2022-11-16T02:13:35.341Z,43.10
2022-11-16T02:16:13.858Z,45.80
2022-11-16T02:19:00.663Z,39.00
2022-11-16T02:21:38.100Z,45.40
2022-11-16T02:24:21.752Z,50.60
2022-11-16T02:27:31.515Z,44.90
2022-11-16T02:30:00.096Z,44.40
2022-11-16T02:32:34.519Z,47.20
2022-11-16T02:35:14.245Z,51.10
2022-11-16T02:37:58.196Z,44.50
2022-11-16T02:40:54.110Z,38.20
2022-11-16T02:43:31.451Z,37.10
2022-11-16T02:46:05.816Z,36.20
2022-11-16T02:48:38.459Z,32.50
2022-11-16T02:51:08.392Z,30.10
2022-11-16T02:53:52.578Z,34.90
2022-11-16T02:58:49.125Z,35.60
2022-11-16T03:01:28.409Z,35.10
2022-11-16T03:04:14.936Z,34.90
2022-11-16T03:06:48.248Z,36.40
2022-11-16T03:09:22.011Z,37.50
2022-11-16T03:12:00.042Z,40.50
2022-11-16T03:14:41.267Z,34.70
2022-11-16T03:17:16.400Z,36.10
2022-11-16T03:20:02.851Z,31.50
2022-11-16T03:22:44.763Z,31.80
2022-11-16T03:25:16.900Z,30.70
2022-11-16T03:27:52.483Z,30.30
2022-11-16T03:30:32.121Z,30.40
2022-11-16T03:33:00.360Z,31.80
2022-11-16T03:35:36.046Z,27.80
2022-11-16T03:38:07.133Z,26.80
2022-11-16T03:41:02.021Z,25.00
2022-11-16T03:43:32.578Z,27.50
2022-11-16T03:46:01.291Z,32.80
2022-11-16T03:48:37.285Z,30.70
2022-11-16T03:51:08.473Z,29.10
2022-11-16T03:53:37.140Z,31.70
2022-11-16T03:56:05.501Z,27.10
2022-11-16T03:58:33.977Z,30.90
2022-11-16T04:01:03.838Z,32.60
2022-11-16T04:03:32.605Z,27.70
2022-11-16T04:06:20.002Z,28.60
2022-11-16T04:09:07.137Z,30.10
2022-11-16T04:11:56.155Z,30.30
2022-11-16T04:14:45.373Z,31.40
2022-11-16T04:17:37.046Z,32.80
2022-11-16T04:20:24.683Z,34.80
2022-11-16T04:23:34.306Z,37.20
2022-11-16T04:26:03.022Z,37.30
2022-11-16T04:28:34.061Z,37.40
2022-11-16T04:31:23.489Z,35.20
2022-11-16T04:34:11.876Z,32.40
2022-11-16T04:36:59.042Z,30.30
2022-11-16T04:39:30.654Z,35.40
2022-11-16T04:42:14.581Z,36.10
2022-11-16T04:45:01.397Z,37.50
2022-11-16T04:47:29.698Z,33.70
2022-11-16T04:49:58.061Z,32.30
2022-11-16T04:52:26.533Z,33.50
2022-11-16T04:54:54.844Z,33.40
2022-11-16T04:57:23.679Z,25.80
2022-11-16T04:59:52.015Z,35.40
2022-11-16T05:02:20.965Z,30.50
2022-11-16T05:04:49.267Z,32.90
2022-11-16T05:07:17.823Z,34.90
2022-11-16T05:09:48.384Z,35.20
2022-11-16T05:12:23.034Z,33.00
2022-11-16T05:14:52.097Z,31.30
2022-11-16T05:17:20.708Z,34.80
2022-11-16T05:20:08.058Z,29.30
2022-11-16T05:22:36.822Z,32.30
2022-11-16T05:25:07.168Z,28.30
2022-11-16T05:27:36.593Z,30.40
2022-11-16T05:30:06.522Z,29.00
2022-11-16T05:32:34.860Z,31.10
2022-11-16T05:35:03.654Z,28.60
2022-11-16T05:37:32.137Z,27.40
2022-11-16T05:40:33.224Z,26.10
2022-11-16T05:43:02.843Z,32.90
2022-11-16T05:45:31.198Z,24.30
2022-11-16T05:47:59.515Z,27.40
2022-11-16T05:50:27.872Z,27.60
2022-11-16T05:52:56.171Z,25.20
2022-11-16T05:55:24.461Z,26.00
2022-11-16T05:57:52.972Z,22.90
2022-11-16T06:00:21.415Z,26.40
2022-11-16T06:02:49.747Z,25.70
2022-11-16T06:05:18.038Z,24.60
2022-11-16T06:07:46.344Z,24.10
2022-11-16T06:10:14.623Z,27.40
2022-11-16T06:12:42.974Z,26.80
2022-11-16T06:15:11.280Z,26.70
2022-11-16T06:17:39.630Z,26.60
2022-11-16T06:20:08.613Z,27.10
2022-11-16T06:22:36.987Z,26.20
2022-11-16T06:25:08.528Z,24.60
2022-11-16T06:27:40.278Z,27.60
2022-11-16T06:30:08.961Z,23.20
2022-11-16T06:32:37.548Z,26.70
2022-11-16T06:35:09.621Z,26.80
2022-11-16T06:37:37.893Z,24.90
2022-11-16T06:40:08.413Z,28.30
2022-11-16T06:42:36.835Z,24.90
2022-11-16T06:45:05.694Z,27.70
2022-11-16T06:47:35.003Z,25.40
2022-11-16T06:50:04.356Z,26.00
2022-11-16T06:52:32.737Z,27.80
2022-11-16T06:55:00.967Z,24.30
2022-11-16T06:57:29.371Z,27.80
2022-11-16T06:59:57.692Z,25.80
2022-11-16T07:02:26.276Z,30.50
2022-11-16T07:04:58.014Z,27.70
2022-11-16T07:07:29.052Z,25.60
2022-11-16T07:09:57.431Z,25.10
2022-11-16T07:12:25.941Z,26.40
2022-11-16T07:14:54.339Z,24.10
2022-11-16T07:17:22.702Z,22.30
2022-11-16T07:19:51.649Z,19.90
2022-11-16T07:22:20.124Z,24.70
2022-11-16T07:24:48.437Z,25.20
2022-11-16T07:27:16.885Z,25.70
2022-11-16T07:29:45.242Z,23.50
2022-11-16T07:32:13.616Z,21.50
2022-11-16T07:34:41.979Z,23.90
2022-11-16T07:37:10.207Z,25.70
2022-11-16T07:39:38.674Z,20.80
2022-11-16T07:42:11.895Z,23.30
2022-11-16T07:44:40.422Z,23.80
2022-11-16T07:47:08.615Z,24.20
2022-11-16T07:49:37.159Z,23.30
2022-11-16T07:55:32.223Z,22.40
2022-11-16T07:58:06.832Z,23.30
2022-11-16T08:01:07.379Z,23.20
2022-11-16T08:03:54.339Z,25.50
2022-11-16T08:06:29.472Z,23.90
2022-11-16T08:09:17.310Z,18.30
2022-11-16T08:11:47.364Z,16.50
2022-11-16T08:14:16.491Z,13.50
2022-11-16T08:16:44.898Z,11.00
2022-11-16T08:19:13.349Z,8.90
2022-11-16T08:21:41.792Z,9.00
2022-11-16T08:24:10.192Z,9.50
2022-11-16T08:26:38.500Z,12.70
2022-11-16T08:29:11.770Z,12.30
2022-11-16T08:31:45.315Z,12.00
2022-11-16T08:34:13.747Z,11.40
2022-11-16T08:36:42.166Z,11.30
2022-11-16T08:39:10.604Z,12.40
2022-11-16T08:41:38.920Z,12.60
2022-11-16T08:44:11.865Z,11.20
2022-11-16T08:46:40.418Z,9.80
2022-11-16T08:49:08.729Z,11.20
2022-11-16T08:51:37.034Z,10.10
2022-11-16T08:54:06.541Z,8.90
2022-11-16T08:56:35.358Z,12.10
2022-11-16T08:59:04.042Z,9.70
2022-11-16T09:01:33.225Z,9.20
2022-11-16T09:04:02.002Z,9.10
2022-11-16T09:06:30.380Z,7.30
2022-11-16T09:08:58.854Z,10.30
2022-11-16T09:11:27.207Z,9.10
2022-11-16T09:13:56.341Z,9.80
2022-11-16T09:16:25.016Z,8.40
2022-11-16T09:18:53.276Z,12.10
2022-11-16T09:21:27.652Z,11.10
2022-11-16T09:23:57.482Z,9.90
2022-11-16T09:26:26.908Z,11.30
2022-11-16T09:29:00.302Z,11.10
2022-11-16T09:31:31.779Z,13.90
2022-11-16T09:34:06.594Z,13.00
2022-11-16T09:36:35.515Z,11.20
2022-11-16T09:41:59.762Z,14.00
2022-11-16T09:47:22.314Z,15.50
2022-11-16T09:50:03.757Z,19.20
2022-11-16T09:52:38.248Z,15.30
2022-11-16T09:57:54.160Z,12.70
2022-11-16T10:00:24.488Z,17.60
2022-11-16T10:02:53.290Z,15.10
2022-11-16T10:05:59.866Z,14.30
2022-11-16T10:08:57.000Z,15.80
2022-11-16T10:11:48.677Z,14.40
2022-11-16T10:14:33.022Z,16.30
2022-11-16T10:17:29.126Z,13.20
2022-11-16T10:20:04.210Z,13.50
2022-11-16T10:23:13.508Z,15.40
2022-11-16T10:25:46.901Z,15.70
2022-11-16T10:28:40.388Z,13.30
2022-11-16T10:31:26.571Z,14.60
2022-11-16T10:33:59.326Z,14.70
2022-11-16T10:36:32.812Z,11.80
2022-11-16T10:39:02.827Z,14.40
2022-11-16T10:41:47.423Z,13.40
2022-11-16T10:44:42.345Z,12.10
2022-11-16T10:47:50.444Z,11.60
2022-11-16T10:50:21.554Z,10.20
2022-11-16T10:52:49.894Z,11.60
2022-11-16T10:55:21.925Z,12.10
2022-11-16T10:58:05.043Z,11.40
2022-11-16T11:00:42.947Z,9.80
2022-11-16T11:03:12.293Z,8.70
2022-11-16T11:05:52.643Z,11.50
2022-11-16T11:08:30.814Z,9.40
2022-11-16T11:11:25.434Z,8.90
2022-11-16T11:14:05.522Z,9.20
2022-11-16T11:16:34.001Z,7.50
2022-11-16T11:19:27.709Z,7.40
2022-11-16T11:21:58.552Z,9.50
2022-11-16T11:24:44.022Z,8.60
2022-11-16T11:27:13.758Z,7.90
2022-11-16T11:29:43.549Z,6.70
2022-11-16T11:32:23.574Z,8.10
2022-11-16T11:34:56.553Z,7.50
2022-11-16T11:37:31.022Z,5.30
2022-11-16T11:40:21.285Z,5.70
2022-11-16T11:42:56.774Z,4.80
2022-11-16T11:45:49.813Z,5.60
2022-11-16T11:48:38.820Z,5.90
2022-11-16T11:51:25.933Z,5.30
2022-11-16T11:53:57.364Z,5.40
2022-11-16T11:56:27.918Z,4.70
2022-11-16T11:58:57.133Z,5.00
2022-11-16T12:02:03.187Z,4.70
2022-11-16T12:04:45.682Z,4.40
2022-11-16T12:07:44.373Z,4.40
2022-11-16T12:10:33.918Z,6.70
2022-11-16T12:13:17.063Z,5.10
2022-11-16T12:16:26.815Z,4.10
2022-11-16T12:19:35.547Z,7.10
2022-11-16T12:22:15.909Z,4.70
2022-11-16T12:25:08.533Z,5.10
2022-11-16T12:27:50.825Z,5.70
2022-11-16T12:30:24.600Z,5.30
2022-11-16T12:33:13.695Z,5.30
2022-11-16T12:35:49.875Z,4.60
2022-11-16T12:38:26.067Z,5.50
2022-11-16T12:41:19.471Z,4.60
2022-11-16T12:44:03.543Z,4.80
2022-11-16T12:46:34.382Z,4.80
2022-11-16T12:49:25.216Z,4.90
2022-11-16T12:52:08.903Z,4.00
2022-11-16T12:55:04.254Z,7.20
2022-11-16T12:57:58.795Z,4.40
2022-11-16T13:00:32.184Z,4.80
2022-11-16T13:03:28.377Z,4.10
2022-11-16T13:06:03.975Z,4.60
2022-11-16T13:08:41.338Z,4.80
2022-11-16T13:11:36.366Z,4.20
2022-11-16T13:14:12.104Z,5.30
2022-11-16T13:16:41.247Z,4.30
2022-11-16T13:19:13.807Z,7.40
2022-11-16T13:22:00.201Z,5.60
2022-11-16T13:24:35.622Z,4.90
2022-11-16T13:27:22.245Z,4.10
2022-11-16T13:30:10.060Z,4.70
2022-11-16T13:32:56.559Z,8.00
2022-11-16T13:35:25.115Z,3.80
2022-11-16T13:37:53.794Z,5.30
2022-11-16T13:40:24.297Z,6.20
2022-11-16T13:43:22.958Z,5.20
2022-11-16T13:45:57.253Z,5.30
2022-11-16T13:48:34.846Z,5.50
2022-11-16T13:51:08.339Z,4.80
2022-11-16T13:56:29.604Z,4.30
2022-11-16T13:58:59.341Z,4.60
2022-11-16T14:02:02.160Z,6.80
2022-11-16T14:04:53.630Z,5.10
2022-11-16T14:07:48.286Z,6.30
2022-11-16T14:10:51.909Z,6.10
2022-11-16T14:13:38.449Z,4.60
2022-11-16T14:16:15.457Z,5.40
2022-11-16T14:18:45.336Z,5.90
2022-11-16T14:21:19.602Z,5.90
2022-11-16T14:23:54.390Z,5.80
2022-11-16T14:26:25.573Z,6.80
2022-11-16T14:29:07.331Z,5.90
2022-11-16T14:31:59.286Z,6.40
2022-11-16T14:34:32.706Z,4.50
2022-11-16T14:37:01.398Z,6.00
2022-11-16T14:39:44.785Z,6.60
2022-11-16T14:42:38.217Z,6.80
2022-11-16T14:45:24.761Z,6.60
2022-11-16T14:48:00.185Z,7.00
2022-11-16T14:50:30.523Z,7.50
2022-11-16T14:53:03.861Z,8.00
2022-11-16T14:55:32.298Z,5.40
2022-11-16T14:58:20.824Z,10.90
2022-11-16T15:01:04.503Z,6.70
2022-11-16T15:03:39.543Z,6.20
2022-11-16T15:06:08.810Z,7.40
2022-11-16T15:08:51.779Z,6.80
2022-11-16T15:11:52.238Z,14.40
2022-11-16T15:14:25.837Z,20.10
2022-11-16T15:16:59.567Z,18.10
2022-11-16T15:19:32.273Z,11.80
2022-11-16T15:22:02.879Z,9.20
2022-11-16T15:24:35.520Z,7.80
2022-11-16T15:27:06.701Z,8.60
2022-11-16T15:29:35.846Z,15.50
2022-11-16T15:32:07.772Z,35.50
2022-11-16T15:34:40.383Z,14.00
2022-11-16T15:37:15.516Z,11.20
2022-11-16T15:39:44.373Z,9.40
2022-11-16T15:42:16.093Z,6.60
2022-11-16T15:44:45.260Z,5.80
2022-11-16T15:47:14.689Z,4.60
2022-11-16T15:49:44.580Z,7.90
2022-11-16T15:52:13.004Z,5.80
2022-11-16T15:55:00.128Z,6.10
2022-11-16T15:57:30.000Z,5.00
2022-11-16T15:59:58.564Z,5.00
2022-11-16T16:02:34.301Z,6.00
2022-11-16T16:05:02.785Z,4.70
2022-11-16T16:07:39.538Z,4.50
2022-11-16T16:10:21.169Z,4.50
2022-11-16T16:12:58.234Z,5.00
2022-11-16T16:15:37.021Z,4.70
2022-11-16T16:18:40.159Z,4.30
2022-11-16T16:21:10.023Z,4.60
2022-11-16T16:23:53.954Z,4.00
2022-11-16T16:28:52.377Z,6.00
2022-11-16T16:31:20.855Z,8.10
2022-11-16T16:33:49.464Z,6.90
2022-11-16T16:36:17.811Z,8.50
2022-11-16T16:38:46.520Z,9.70
2022-11-16T16:41:24.058Z,6.40
2022-11-16T16:43:53.626Z,8.30
2022-11-16T16:46:22.746Z,23.30
2022-11-16T16:48:51.850Z,10.40
2022-11-16T16:51:20.744Z,10.50
2022-11-16T16:53:49.333Z,11.70
2022-11-16T16:56:20.307Z,12.40
2022-11-16T16:58:49.312Z,16.90
2022-11-16T17:01:18.865Z,17.50
2022-11-16T17:03:47.598Z,16.90
2022-11-16T17:06:16.751Z,8.80
2022-11-16T17:08:45.076Z,13.20
2022-11-16T17:11:15.919Z,11.10
2022-11-16T17:13:44.614Z,8.10
2022-11-16T17:16:15.621Z,7.90
2022-11-16T17:18:45.132Z,6.30
2022-11-16T17:21:14.552Z,7.90
2022-11-16T17:23:44.050Z,7.00
2022-11-16T17:26:13.232Z,6.90
2022-11-16T17:28:42.545Z,9.40
2022-11-16T17:31:13.315Z,6.70
2022-11-16T17:33:43.487Z,6.30
2022-11-16T17:36:13.910Z,6.10
2022-11-16T17:38:43.268Z,6.60
2022-11-16T17:41:16.066Z,13.50
2022-11-16T17:43:47.060Z,7.40
2022-11-16T17:46:18.924Z,9.90
2022-11-16T17:48:50.589Z,12.80
2022-11-16T17:51:22.648Z,7.70
2022-11-16T17:53:52.644Z,8.70
2022-11-16T17:56:29.221Z,5.70
2022-11-16T17:58:59.035Z,6.40
2022-11-16T18:01:35.534Z,6.30
2022-11-16T18:04:05.159Z,4.70
2022-11-16T18:06:36.222Z,5.10
2022-11-16T18:09:05.626Z,9.10
2022-11-16T18:11:35.650Z,6.30
2022-11-16T18:14:06.446Z,5.50
2022-11-16T18:16:42.982Z,5.10
2022-11-16T18:19:17.607Z,5.20
2022-11-16T18:21:47.855Z,5.80
2022-11-16T18:24:17.127Z,4.40
2022-11-16T18:26:46.974Z,4.80
2022-11-16T18:29:23.027Z,6.70
2022-11-16T18:31:52.322Z,6.60
2022-11-16T18:34:22.328Z,10.70
2022-11-16T18:36:51.237Z,6.70
2022-11-16T18:39:21.718Z,5.00
2022-11-16T18:41:55.201Z,6.10
2022-11-16T18:44:25.571Z,5.70
2022-11-16T18:46:59.086Z,5.60
2022-11-16T18:49:29.404Z,5.30
2022-11-16T18:51:59.116Z,6.30
2022-11-16T18:54:30.810Z,6.10
2022-11-16T18:57:00.435Z,4.50
2022-11-16T18:59:29.989Z,6.70
2022-11-16T19:01:59.377Z,5.20
2022-11-16T19:04:29.556Z,5.60
2022-11-16T19:06:59.547Z,6.00
2022-11-16T19:09:29.132Z,6.00
2022-11-16T19:11:58.716Z,4.90
2022-11-16T19:14:27.897Z,6.50
2022-11-16T19:16:59.258Z,5.10
2022-11-16T19:19:29.597Z,6.20
2022-11-16T19:21:59.159Z,7.20
2022-11-16T19:24:28.910Z,9.10
2022-11-16T19:26:59.145Z,7.50
2022-11-16T19:29:28.009Z,9.30
2022-11-16T19:31:58.016Z,8.00
2022-11-16T19:34:32.999Z,9.80
2022-11-16T19:37:03.098Z,7.80
2022-11-16T19:39:43.821Z,9.20
2022-11-16T19:42:14.352Z,7.30
2022-11-16T19:44:46.093Z,7.80
2022-11-16T19:47:16.217Z,11.50
2022-11-16T19:49:48.413Z,7.10
2022-11-16T19:52:21.017Z,6.70
2022-11-16T19:54:50.585Z,6.20
2022-11-16T19:57:21.489Z,8.10
2022-11-16T19:59:54.046Z,7.90
2022-11-16T20:02:26.415Z,5.40
2022-11-16T20:04:56.157Z,6.60
2022-11-16T20:07:27.329Z,7.00
2022-11-16T20:09:56.407Z,5.60
2022-11-16T20:12:26.240Z,6.30
2022-11-16T20:14:55.855Z,6.00
2022-11-16T20:17:25.256Z,6.20
2022-11-16T20:19:56.432Z,4.90
2022-11-16T20:22:26.831Z,5.90
2022-11-16T20:24:57.706Z,6.10
2022-11-16T20:27:29.056Z,7.00
2022-11-16T20:29:58.701Z,5.90
2022-11-16T20:32:29.107Z,4.50
2022-11-16T20:34:58.069Z,6.10
2022-11-16T20:37:27.926Z,6.30
2022-11-16T20:39:59.295Z,5.60
2022-11-16T20:42:28.863Z,6.80
2022-11-16T20:44:57.933Z,5.70
2022-11-16T20:47:27.124Z,5.50
2022-11-16T20:49:56.402Z,7.00
2022-11-16T20:52:25.611Z,6.10
2022-11-16T20:54:55.002Z,6.50
2022-11-16T20:57:24.214Z,5.60
2022-11-16T20:59:53.268Z,7.60
2022-11-16T21:02:21.858Z,5.80
2022-11-16T21:04:52.808Z,6.90
2022-11-16T21:07:25.497Z,5.70
2022-11-16T21:10:13.968Z,5.70
2022-11-16T21:13:01.440Z,6.70
2022-11-16T21:15:30.166Z,1.60
2022-11-16T21:17:58.984Z,9.60
2022-11-16T21:20:28.355Z,7.60
2022-11-16T21:22:57.814Z,8.20
2022-11-16T21:25:26.369Z,7.10
2022-11-16T21:27:55.053Z,8.20
2022-11-16T21:30:23.475Z,5.50
2022-11-16T21:32:51.811Z,8.60
2022-11-16T21:35:21.351Z,7.30
2022-11-16T21:37:49.726Z,7.90
2022-11-16T21:40:18.189Z,7.30
2022-11-16T21:42:47.812Z,8.80
2022-11-16T21:45:16.210Z,8.60
2022-11-16T21:47:44.574Z,9.20
2022-11-16T21:53:02.829Z,8.00
2022-11-16T21:55:31.288Z,9.20
2022-11-16T21:57:59.872Z,9.80
2022-11-16T22:00:28.335Z,8.00
2022-11-16T22:02:56.764Z,8.70
2022-11-16T22:05:44.022Z,9.30
2022-11-16T22:08:12.610Z,9.30
2022-11-16T22:10:41.056Z,10.60
2022-11-16T22:13:09.436Z,8.30
2022-11-16T22:15:37.783Z,9.40
2022-11-16T22:18:06.332Z,9.70
2022-11-16T22:20:34.864Z,9.90
2022-11-16T22:23:03.277Z,10.20
2022-11-16T22:25:31.999Z,9.40
2022-11-16T22:30:52.173Z,8.10
2022-11-16T22:33:20.888Z,10.70
2022-11-16T22:35:49.206Z,10.00
2022-11-16T22:38:17.528Z,9.70
2022-11-16T22:40:52.610Z,12.10
2022-11-16T22:43:22.983Z,10.10
2022-11-16T22:45:51.665Z,8.50
2022-11-16T22:48:20.011Z,9.00
2022-11-16T22:50:48.275Z,9.40
2022-11-16T22:53:16.612Z,9.80
2022-11-16T22:55:44.914Z,10.60
2022-11-16T22:58:13.254Z,9.10
2022-11-16T23:00:42.323Z,10.20
2022-11-16T23:03:10.947Z,8.80
2022-11-16T23:05:39.302Z,14.10
2022-11-16T23:08:07.688Z,14.60
2022-11-16T23:10:55.961Z,10.40
2022-11-16T23:13:42.885Z,9.00
2022-11-16T23:16:11.215Z,6.70
2022-11-16T23:18:39.568Z,9.10
2022-11-16T23:21:26.578Z,9.50
2022-11-16T23:24:13.589Z,9.80
2022-11-16T23:27:00.941Z,9.60
2022-11-16T23:29:29.317Z,9.80
2022-11-16T23:31:57.629Z,11.70
2022-11-16T23:34:25.945Z,9.40
2022-11-16T23:36:54.241Z,11.00
2022-11-16T23:39:47.362Z,9.40
2022-11-16T23:42:34.629Z,10.00
2022-11-16T23:45:03.150Z,10.30
2022-11-16T23:47:31.399Z,10.10
2022-11-16T23:49:59.785Z,9.80
2022-11-16T23:52:28.160Z,12.30
2022-11-16T23:54:56.457Z,10.80
2022-11-16T23:57:24.676Z,12.70
2022-11-16T23:59:52.957Z,12.30
